Time;durP1;ratioP1;P1;durP2;ratioP2;P2;SDS_P1;SDS_P2;PMS_P1;PMS_P2;Temp;Humidity;BMP_temperature;BMP_pressure;BME280_temperature;BME280_humidity;BME280_pressure;Samples;Min_cycle;Max_cycle;Signal;HPM_P1;HPM_P2
2021/12/05 00:23:21;;;;;;;90.35;23.40;;;3.50;99.90;;;;;;5073377;28;20407;-81
2021/12/05 00:25:51;;;;;;;80.80;22.57;;;3.30;99.90;;;;;;5056661;28;20052;-81
2021/12/05 01:15:05;;;;;;;32.77;10.87;;;2.90;99.90;;;;;;5072401;28;20048;-78
2021/12/05 01:16:56;;;;;;;34.83;10.97;;;3.10;99.90;;;;;;5054343;28;20145;-81
2021/12/05 01:19:23;;;;;;;33.60;10.63;;;2.90;99.90;;;;;;5072583;28;20372;-79
2021/12/05 01:21:53;;;;;;;30.67;10.40;;;3.10;99.90;;;;;;5055543;28;20436;-81
2021/12/05 01:27:07;;;;;;;24.00;10.70;;;3.10;99.90;;;;;;5072086;28;20270;-81
2021/12/05 01:32:10;;;;;;;25.37;8.37;;;3.10;99.90;;;;;;5055249;28;20098;-78
2021/12/05 01:37:16;;;;;;;22.83;7.93;;;3.20;99.90;;;;;;5038786;28;20109;-81
2021/12/05 02:41:22;;;;;;;17.83;8.40;;;3.50;99.90;;;;;;5075065;28;20135;-80
2021/12/05 02:43:59;;;;;;;9.95;5.18;;;3.40;99.90;;;;;;5058678;28;20490;-81
2021/12/05 02:46:26;;;;;;;12.93;6.72;;;3.50;99.90;;;;;;5058414;28;20098;-81
2021/12/05 02:48:55;;;;;;;16.60;7.13;;;3.40;99.90;;;;;;5075165;28;20060;-81
2021/12/05 02:51:24;;;;;;;12.98;6.28;;;3.40;99.90;;;;;;5074843;28;20044;-79
2021/12/05 02:54:02;;;;;;;22.48;8.52;;;3.40;99.90;;;;;;5074912;28;20102;-81
2021/12/05 02:56:31;;;;;;;18.90;8.82;;;3.40;99.90;;;;;;5074881;28;20071;-79
2021/12/05 02:59:04;;;;;;;16.77;8.32;;;3.40;99.90;;;;;;5025841;28;20054;-82
2021/12/05 03:01:45;;;;;;;26.95;11.68;;;3.40;99.90;;;;;;5058351;28;20465;-78
2021/12/05 03:04:11;;;;;;;30.25;12.32;;;3.70;99.90;;;;;;5029114;28;20045;-79
2021/12/05 03:06:38;;;;;;;24.02;11.00;;;3.40;99.90;;;;;;5058058;28;20051;-79
2021/12/05 03:09:08;;;;;;;18.75;10.55;;;3.40;99.90;;;;;;5058063;28;20087;-81
2021/12/05 03:11:35;;;;;;;34.20;13.13;;;3.40;99.90;;;;;;5057906;28;20044;-79
2021/12/05 03:14:01;;;;;;;29.40;12.45;;;3.40;99.90;;;;;;5041436;28;20056;-81
2021/12/05 03:16:28;;;;;;;30.33;12.15;;;3.40;99.90;;;;;;5074468;28;20048;-79
2021/12/05 03:18:54;;;;;;;22.35;11.05;;;3.40;99.90;;;;;;5057776;28;20411;-79
2021/12/05 03:21:21;;;;;;;30.98;12.55;;;3.40;99.90;;;;;;5074395;28;20048;-82
2021/12/05 03:23:50;;;;;;;25.48;10.77;;;3.40;99.90;;;;;;5057737;28;20052;-80
2021/12/05 03:26:21;;;;;;;31.45;11.70;;;3.40;99.90;;;;;;5057561;28;20044;-78
2021/12/05 03:28:49;;;;;;;29.08;11.50;;;3.40;99.90;;;;;;5074286;28;20044;-79
2021/12/05 03:31:16;;;;;;;27.95;12.38;;;3.20;99.90;;;;;;5074494;28;20549;-79
2021/12/05 03:33:42;;;;;;;29.13;12.85;;;3.40;99.90;;;;;;5074384;28;20048;-78
2021/12/05 03:36:09;;;;;;;31.17;12.48;;;3.20;99.90;;;;;;5057377;28;20052;-80
2021/12/05 03:38:36;;;;;;;27.95;13.35;;;3.10;99.90;;;;;;5056340;28;20075;-78
2021/12/05 03:41:04;;;;;;;40.08;14.05;;;3.00;99.90;;;;;;5040715;28;20047;-78
2021/12/05 03:43:30;;;;;;;32.55;13.07;;;3.00;99.90;;;;;;5073968;28;20042;-79
2021/12/05 03:45:57;;;;;;;31.23;14.65;;;2.90;99.90;;;;;;5057399;28;20048;-81
2021/12/05 03:48:26;;;;;;;32.25;14.40;;;2.90;99.90;;;;;;5073995;28;20048;-79
2021/12/05 03:50:53;;;;;;;28.13;14.00;;;2.80;99.90;;;;;;5057473;28;20403;-78
2021/12/05 03:53:20;;;;;;;34.38;14.15;;;2.80;99.90;;;;;;5040711;28;20041;-78
2021/12/05 03:55:50;;;;;;;33.38;14.65;;;2.80;99.90;;;;;;5056896;28;20049;-81
2021/12/05 03:58:18;;;;;;;24.92;12.20;;;2.80;99.90;;;;;;5057178;28;20087;-78
2021/12/05 04:00:47;;;;;;;42.47;15.85;;;2.80;99.90;;;;;;5073712;28;20434;-78
2021/12/05 04:03:16;;;;;;;31.33;14.18;;;2.90;99.90;;;;;;5056818;28;20072;-80
2021/12/05 04:05:42;;;;;;;26.58;13.18;;;2.90;99.90;;;;;;5057204;28;20518;-81
2021/12/05 04:08:10;;;;;;;33.07;14.23;;;2.90;99.90;;;;;;5073553;28;20047;-82
2021/12/05 04:10:39;;;;;;;39.28;16.52;;;2.70;99.90;;;;;;5057123;28;20048;-78
2021/12/05 04:13:05;;;;;;;35.70;16.05;;;2.70;99.90;;;;;;5073309;28;20052;-78
2021/12/05 04:15:32;;;;;;;35.80;17.55;;;2.70;99.90;;;;;;5040111;28;20134;-78
2021/12/05 04:17:58;;;;;;;38.60;18.15;;;2.60;99.90;;;;;;5056628;28;20043;-81
2021/12/05 04:20:25;;;;;;;44.33;18.77;;;2.60;99.90;;;;;;5073334;28;20047;-81
2021/12/05 04:22:52;;;;;;;51.60;19.33;;;2.50;99.90;;;;;;5056590;28;20045;-78
2021/12/05 04:25:20;;;;;;;31.45;15.88;;;2.50;99.90;;;;;;5040025;28;20040;-81
2021/12/05 04:27:49;;;;;;;35.58;17.13;;;2.40;99.90;;;;;;5073466;28;20568;-81
2021/12/05 04:30:20;;;;;;;42.67;19.60;;;2.40;99.90;;;;;;5056620;28;20376;-78
2021/12/05 04:32:46;;;;;;;50.57;21.17;;;2.50;99.90;;;;;;5073067;28;20049;-81
2021/12/05 04:35:12;;;;;;;49.13;20.92;;;2.40;99.90;;;;;;5056356;28;20044;-78
2021/12/05 04:37:38;;;;;;;37.30;21.23;;;2.40;99.90;;;;;;5023143;28;20403;-79
2021/12/05 04:40:06;;;;;;;42.10;19.35;;;2.50;99.90;;;;;;5039976;28;20040;-78
2021/12/05 04:42:32;;;;;;;47.63;20.73;;;2.60;99.90;;;;;;5056057;28;20136;-81
2021/12/05 04:45:01;;;;;;;41.93;20.37;;;2.60;99.90;;;;;;5056464;28;20478;-79
2021/12/05 04:47:27;;;;;;;41.00;16.37;;;2.50;99.90;;;;;;5072676;28;20045;-78
2021/12/05 04:49:52;;;;;;;48.77;20.33;;;2.60;99.90;;;;;;5039531;28;20109;-79
2021/12/05 04:52:18;;;;;;;45.70;20.63;;;2.80;99.90;;;;;;5056143;28;20131;-81
2021/12/05 04:54:44;;;;;;;46.55;21.85;;;2.80;99.90;;;;;;5072427;28;20079;-81
2021/12/05 04:57:10;;;;;;;45.25;22.08;;;2.70;99.90;;;;;;5072493;28;20556;-79
2021/12/05 04:59:38;;;;;;;45.78;21.17;;;2.80;99.90;;;;;;5039223;28;20074;-81
2021/12/05 05:02:06;;;;;;;46.05;19.38;;;2.80;99.90;;;;;;5056077;28;20048;-81
2021/12/05 05:04:40;;;;;;;43.50;19.95;;;3.00;99.90;;;;;;5055877;28;20508;-81
2021/12/05 05:07:15;;;;;;;39.67;19.02;;;2.90;99.90;;;;;;5072245;28;20121;-81
2021/12/05 05:09:41;;;;;;;46.72;21.10;;;2.90;99.90;;;;;;5072292;28;20046;-81
2021/12/05 05:12:07;;;;;;;50.72;20.85;;;2.80;99.90;;;;;;5055743;28;20048;-79
2021/12/05 05:14:33;;;;;;;33.92;17.23;;;2.80;99.90;;;;;;5055978;28;20548;-81
2021/12/05 05:16:59;;;;;;;46.05;18.73;;;2.90;99.90;;;;;;5072080;28;20049;-78
2021/12/05 05:19:27;;;;;;;38.58;15.38;;;2.90;99.90;;;;;;5055676;28;20047;-78
2021/12/05 05:22:13;;;;;;;31.63;15.23;;;2.80;99.90;;;;;;5039231;28;20040;-81
2021/12/05 05:40:25;;;;;;;23.15;9.05;;;2.80;99.90;;;;;;5071827;28;20048;-78
2021/12/05 05:51:05;;;;;;;44.97;16.42;;;2.70;99.90;;;;;;5057879;28;20492;-81
2021/12/05 05:53:31;;;;;;;29.80;13.15;;;2.70;99.90;;;;;;5071904;28;20045;-79
2021/12/05 05:55:57;;;;;;;39.92;14.18;;;2.70;99.90;;;;;;5021648;28;20048;-78
2021/12/05 05:58:38;;;;;;;30.42;15.40;;;2.70;99.90;;;;;;5038657;28;20403;-82
2021/12/05 06:01:07;;;;;;;32.13;13.65;;;2.70;99.90;;;;;;5054570;28;20040;-81
2021/12/05 06:03:33;;;;;;;25.45;11.73;;;2.80;99.90;;;;;;5055097;28;20399;-81
2021/12/05 06:06:05;;;;;;;34.50;15.27;;;2.80;99.90;;;;;;5071830;28;20048;-81
2021/12/05 06:08:33;;;;;;;38.72;16.27;;;2.70;99.90;;;;;;5071770;28;20039;-78
2021/12/05 06:11:04;;;;;;;23.70;10.00;;;2.60;99.90;;;;;;5071422;28;20048;-82
2021/12/05 06:13:30;;;;;;;24.67;10.50;;;2.60;99.90;;;;;;5055176;28;20059;-81
2021/12/05 06:15:57;;;;;;;17.23;9.15;;;2.60;99.90;;;;;;5071297;28;20048;-78
2021/12/05 06:18:23;;;;;;;25.27;11.45;;;2.70;99.90;;;;;;5054703;28;20110;-80
2021/12/05 06:20:50;;;;;;;26.60;11.43;;;2.50;99.90;;;;;;5054687;28;20041;-78
2021/12/05 06:23:16;;;;;;;30.70;13.65;;;2.60;99.90;;;;;;5055035;28;20462;-82
2021/12/05 06:25:45;;;;;;;29.13;11.75;;;2.60;99.90;;;;;;5071332;28;20076;-81
2021/12/05 06:28:14;;;;;;;35.95;13.32;;;2.50;99.90;;;;;;5054541;28;20122;-82
2021/12/05 06:31:01;;;;;;;29.50;12.27;;;2.40;99.90;;;;;;5071435;28;20045;-82
2021/12/05 06:39:18;;;;;;;19.25;9.05;;;2.40;99.90;;;;;;5071263;28;20052;-82
2021/12/05 06:41:59;;;;;;;27.90;10.93;;;2.50;99.90;;;;;;5070908;28;20058;-81
2021/12/05 06:47:11;;;;;;;25.20;10.60;;;2.50;99.90;;;;;;5071211;28;20059;-79
2021/12/05 06:49:38;;;;;;;25.55;11.20;;;2.30;99.90;;;;;;5054937;28;20071;-81
2021/12/05 06:52:04;;;;;;;26.90;12.40;;;2.30;99.90;;;;;;5071338;28;20053;-79
2021/12/05 06:54:30;;;;;;;27.63;11.40;;;2.30;99.90;;;;;;5054452;28;20077;-79
2021/12/05 06:56:56;;;;;;;27.00;12.27;;;2.30;99.90;;;;;;5054399;28;20085;-81
2021/12/05 06:59:22;;;;;;;23.80;9.70;;;2.30;99.90;;;;;;5054338;28;20132;-78
2021/12/05 07:01:47;;;;;;;23.20;9.27;;;2.20;99.90;;;;;;5054247;28;20418;-81
2021/12/05 07:06:58;;;;;;;26.27;10.43;;;2.20;99.90;;;;;;5057082;28;20411;-79
2021/12/05 07:09:24;;;;;;;16.67;7.07;;;2.20;99.90;;;;;;5054925;28;20098;-81
2021/12/05 07:12:15;;;;;;;27.80;10.00;;;2.10;99.90;;;;;;5054074;28;20044;-79
2021/12/05 07:14:47;;;;;;;28.13;12.03;;;2.20;99.90;;;;;;5072889;28;20041;-79
2021/12/05 07:20:37;;;;;;;32.67;12.70;;;2.00;99.90;;;;;;5074390;28;20055;-79
2021/12/05 07:25:34;;;;;;;32.80;12.40;;;2.10;99.90;;;;;;5074625;28;20059;-80
2021/12/05 07:42:09;;;;;;;33.90;12.15;;;2.10;99.90;;;;;;5056408;28;20067;-78
2021/12/05 07:44:35;;;;;;;32.58;13.60;;;2.20;99.90;;;;;;5057874;28;20056;-78
2021/12/05 07:47:01;;;;;;;36.53;12.80;;;2.20;99.90;;;;;;5073706;28;20114;-78
2021/12/05 07:49:27;;;;;;;38.70;13.43;;;2.30;99.90;;;;;;5057652;28;20435;-80
2021/12/05 07:51:53;;;;;;;38.05;14.20;;;2.30;99.90;;;;;;5073941;28;20044;-80
2021/12/05 07:57:22;;;;;;;32.15;13.52;;;2.30;99.90;;;;;;5049642;28;20458;-79
2021/12/05 08:16:06;;;;;;;32.57;12.10;;;2.50;99.90;;;;;;5059146;28;20044;-80
2021/12/05 08:18:32;;;;;;;39.75;11.73;;;2.40;99.90;;;;;;5057792;28;20558;-78
2021/12/05 08:21:01;;;;;;;28.63;11.27;;;2.60;99.90;;;;;;5073441;28;20040;-79
2021/12/05 08:23:27;;;;;;;24.58;11.38;;;2.50;99.90;;;;;;5056616;28;20052;-78
2021/12/05 08:26:09;;;;;;;32.20;11.23;;;2.80;99.90;;;;;;5072744;28;20047;-81
2021/12/05 08:31:18;;;;;;;32.05;12.25;;;2.60;99.90;;;;;;5073311;28;20406;-78
2021/12/05 09:39:11;;;;;;;24.20;12.43;;;4.00;99.90;;;;;;5071847;28;20487;-78
2021/12/05 10:09:47;;;;;;;23.48;13.85;;;3.80;99.90;;;;;;5071651;28;20102;-78
2021/12/05 10:17:27;;;;;;;26.33;13.20;;;3.60;99.90;;;;;;5038076;28;20079;-81
2021/12/05 10:20:23;;;;;;;33.40;14.32;;;3.60;99.90;;;;;;5071541;28;20052;-78
2021/12/05 10:34:47;;;;;;;27.00;14.18;;;3.60;99.90;;;;;;5071005;28;20060;-81
2021/12/05 10:37:18;;;;;;;33.78;14.05;;;3.70;99.90;;;;;;5071183;28;20426;-81
2021/12/05 10:39:45;;;;;;;23.42;13.05;;;3.70;99.90;;;;;;5071273;28;20410;-82
2021/12/05 10:42:37;;;;;;;27.70;14.60;;;3.80;99.90;;;;;;5070843;28;20068;-81
2021/12/05 10:45:05;;;;;;;29.27;13.82;;;3.70;99.90;;;;;;5070653;28;20078;-82
2021/12/05 10:47:53;;;;;;;33.72;15.00;;;3.60;99.90;;;;;;5054502;28;20125;-82
2021/12/05 10:50:35;;;;;;;22.45;13.40;;;3.70;99.90;;;;;;5074959;28;20047;-82
2021/12/05 10:53:30;;;;;;;25.95;12.90;;;3.60;99.90;;;;;;5058228;28;20041;-79
2021/12/05 10:56:03;;;;;;;29.25;14.23;;;3.60;99.90;;;;;;5057962;28;20060;-82
2021/12/05 10:58:52;;;;;;;25.05;13.27;;;3.60;99.90;;;;;;5074755;28;20045;-79
2021/12/05 11:01:23;;;;;;;32.65;14.45;;;3.70;99.90;;;;;;5058289;28;20117;-79
2021/12/05 11:04:17;;;;;;;34.03;14.20;;;3.70;99.90;;;;;;5074896;28;20076;-81
2021/12/05 11:06:50;;;;;;;29.50;14.10;;;3.60;99.90;;;;;;5058000;28;20080;-82
2021/12/05 11:09:26;;;;;;;31.85;15.98;;;3.60;99.90;;;;;;5074496;28;20044;-82
2021/12/05 11:12:00;;;;;;;24.20;13.15;;;3.70;99.90;;;;;;5074574;28;20048;-79
2021/12/05 11:14:30;;;;;;;31.30;16.05;;;3.70;99.90;;;;;;5057952;28;20123;-82
2021/12/05 11:17:08;;;;;;;28.13;14.23;;;3.70;99.90;;;;;;5074472;28;20045;-79
2021/12/05 11:19:46;;;;;;;29.48;15.13;;;3.70;99.90;;;;;;5074532;28;20074;-83
2021/12/05 11:22:36;;;;;;;28.38;13.32;;;3.80;99.90;;;;;;5074546;28;20387;-82
2021/12/05 11:25:14;;;;;;;27.33;13.57;;;3.80;99.90;;;;;;5074248;28;20041;-79
2021/12/05 11:27:45;;;;;;;29.90;14.75;;;3.80;99.90;;;;;;5074072;28;20055;-79
2021/12/05 11:30:15;;;;;;;26.67;14.75;;;3.80;99.90;;;;;;5057822;28;20414;-78
2021/12/05 11:32:49;;;;;;;29.80;15.25;;;3.80;99.90;;;;;;5057698;28;20554;-79
2021/12/05 11:35:17;;;;;;;;;;;3.90;99.90;;;;;;5074829;28;20140;-82
2021/12/05 11:38:01;;;;;;;25.02;14.10;;;3.90;99.90;;;;;;5074278;28;19964;-78
2021/12/05 11:40:42;;;;;;;26.92;15.10;;;3.80;99.90;;;;;;5074246;28;20083;-82
2021/12/05 11:43:10;;;;;;;30.65;14.25;;;3.90;99.90;;;;;;5074029;28;20044;-82
2021/12/05 11:45:55;;;;;;;22.75;12.65;;;4.00;99.90;;;;;;5074351;28;20178;-79
2021/12/05 11:48:34;;;;;;;24.77;13.60;;;4.00;99.90;;;;;;5074215;28;20190;-79
2021/12/05 11:51:02;;;;;;;24.85;13.95;;;4.10;99.90;;;;;;5057558;28;20111;-82
2021/12/05 11:53:43;;;;;;;23.88;13.70;;;4.10;99.90;;;;;;5040818;28;20084;-79
2021/12/05 11:56:15;;;;;;;23.83;13.65;;;4.20;99.90;;;;;;5073661;28;20056;-79
2021/12/05 11:58:43;;;;;;;26.38;13.63;;;4.20;99.90;;;;;;5057134;28;20442;-83
2021/12/05 12:01:13;;;;;;;23.27;14.05;;;4.30;99.90;;;;;;5056639;28;20403;-79
2021/12/05 12:03:41;;;;;;;25.38;12.48;;;4.40;99.90;;;;;;5057103;28;20048;-79
2021/12/05 12:06:07;;;;;;;26.83;11.80;;;4.40;99.90;;;;;;5073555;28;20048;-82
2021/12/05 12:08:33;;;;;;;24.85;13.15;;;4.40;99.90;;;;;;5073574;28;20414;-79
2021/12/05 12:11:01;;;;;;;25.70;13.93;;;4.60;99.90;;;;;;5040256;28;20049;-82
2021/12/05 12:13:38;;;;;;;24.45;12.13;;;4.90;99.90;;;;;;5073687;28;20052;-80
2021/12/05 12:16:08;;;;;;;19.75;12.05;;;4.80;99.90;;;;;;5073433;28;20135;-82
2021/12/05 12:18:40;;;;;;;23.23;11.63;;;4.90;99.90;;;;;;5073540;28;20122;-82
2021/12/05 12:21:11;;;;;;;20.30;11.35;;;5.00;99.90;;;;;;5073590;28;20559;-79
2021/12/05 12:23:38;;;;;;;20.13;11.35;;;5.00;99.90;;;;;;5056673;28;20048;-81
2021/12/05 12:26:06;;;;;;;19.35;10.27;;;5.10;99.90;;;;;;5040296;28;20123;-84
2021/12/05 12:28:32;;;;;;;20.38;11.00;;;5.20;99.90;;;;;;5056459;28;20304;-84
2021/12/05 12:31:13;;;;;;;18.77;10.15;;;5.40;99.90;;;;;;5056562;28;20333;-83
2021/12/05 12:33:49;;;;;;;18.83;10.40;;;5.30;99.90;;;;;;5073100;28;20118;-80
2021/12/05 12:36:15;;;;;;;21.17;11.75;;;5.20;99.90;;;;;;5056037;28;20084;-79
2021/12/05 12:38:44;;;;;;;22.48;10.32;;;5.20;99.90;;;;;;5056100;28;20066;-82
2021/12/05 12:41:17;;;;;;;16.75;9.77;;;5.20;99.90;;;;;;5055947;28;20040;-79
2021/12/05 12:43:46;;;;;;;23.50;10.65;;;5.30;99.90;;;;;;5072943;28;20383;-80
2021/12/05 12:46:40;;;;;;;20.80;10.20;;;5.20;99.90;;;;;;5056034;28;20084;-80
2021/12/05 12:49:15;;;;;;;24.85;10.93;;;5.20;99.90;;;;;;5056198;28;20048;-84
2021/12/05 12:51:42;;;;;;;21.40;11.23;;;5.20;99.90;;;;;;5072567;28;20044;-83
2021/12/05 12:54:18;;;;;;;19.20;10.48;;;5.10;99.90;;;;;;5072695;28;20051;-84
2021/12/05 12:57:12;;;;;;;19.20;9.10;;;5.00;99.90;;;;;;5055738;28;20058;-84
2021/12/05 12:59:40;;;;;;;;;;;5.00;99.90;;;;;;5070554;28;20357;-84
2021/12/05 13:10:40;;;;;;;20.70;11.70;;;4.90;99.90;;;;;;5072095;28;20044;-83
2021/12/05 13:13:17;;;;;;;20.92;12.23;;;4.90;99.90;;;;;;5055058;28;20037;-84
2021/12/05 13:15:45;;;;;;;24.05;12.00;;;4.90;99.90;;;;;;5072105;28;20110;-80
2021/12/05 13:18:10;;;;;;;19.02;12.25;;;5.00;99.90;;;;;;5072480;28;20494;-79
2021/12/05 13:20:42;;;;;;;20.50;12.40;;;5.10;99.90;;;;;;5055560;28;20091;-79
2021/12/05 13:23:14;;;;;;;18.38;10.82;;;4.90;99.90;;;;;;5072429;28;20077;-82
2021/12/05 13:26:18;;;;;;;21.25;11.52;;;4.90;99.90;;;;;;5055467;28;20044;-79
2021/12/05 13:29:08;;;;;;;20.60;11.65;;;4.90;99.90;;;;;;5071992;28;20110;-82
2021/12/05 13:31:41;;;;;;;19.05;12.30;;;4.90;99.90;;;;;;5072000;28;20079;-80
2021/12/05 13:34:25;;;;;;;20.50;11.48;;;5.00;99.90;;;;;;5055715;28;20046;-84
2021/12/05 13:37:05;;;;;;;24.50;12.18;;;5.00;99.90;;;;;;5055154;28;20037;-80
2021/12/05 13:39:45;;;;;;;24.73;11.40;;;4.90;99.90;;;;;;5055429;28;20045;-83
2021/12/05 13:42:24;;;;;;;21.10;11.05;;;5.00;99.90;;;;;;5071668;28;20055;-79
2021/12/05 13:45:17;;;;;;;20.25;11.13;;;5.00;99.90;;;;;;5071606;28;20044;-84
2021/12/05 13:47:53;;;;;;;20.73;11.95;;;4.90;99.90;;;;;;5055274;28;20524;-82
2021/12/05 13:50:21;;;;;;;18.95;11.07;;;4.90;99.90;;;;;;5071605;28;20055;-83
2021/12/05 13:53:02;;;;;;;19.63;10.82;;;4.90;99.90;;;;;;5071379;28;20044;-83
2021/12/05 13:55:55;;;;;;;21.73;10.55;;;4.90;99.90;;;;;;5054894;28;20075;-80
2021/12/05 13:58:38;;;;;;;20.95;11.10;;;4.90;99.90;;;;;;5071636;28;20059;-84
2021/12/05 14:01:07;;;;;;;20.70;10.20;;;4.80;99.90;;;;;;5071779;28;20483;-83
2021/12/05 14:03:55;;;;;;;24.48;10.35;;;4.70;99.90;;;;;;5071806;28;20510;-83
2021/12/05 14:06:49;;;;;;;15.35;9.90;;;4.70;99.90;;;;;;5071745;28;20041;-83
2021/12/05 14:09:19;;;;;;;;;;;4.70;99.90;;;;;;5055467;28;20051;-80
2021/12/05 14:11:56;;;;;;;16.90;10.02;;;4.60;99.90;;;;;;5054952;28;19927;-80
2021/12/05 14:14:37;;;;;;;15.95;9.70;;;4.70;99.90;;;;;;5071372;28;20044;-83
2021/12/05 14:17:34;;;;;;;21.30;9.70;;;4.60;99.90;;;;;;5055162;28;20049;-82
2021/12/05 14:20:05;;;;;;;16.67;10.13;;;4.50;99.90;;;;;;5050163;28;20049;-84
2021/12/05 14:22:33;;;;;;;19.88;10.32;;;4.50;99.90;;;;;;5071847;28;20044;-79
2021/12/05 14:25:04;;;;;;;21.20;11.30;;;4.50;99.90;;;;;;5059064;28;20551;-83
2021/12/05 14:27:34;;;;;;;25.23;11.15;;;4.50;99.90;;;;;;5075478;28;20119;-79
2021/12/05 14:30:01;;;;;;;19.98;11.23;;;4.60;99.90;;;;;;5058802;28;20090;-82
2021/12/05 14:32:31;;;;;;;22.92;11.60;;;4.50;99.90;;;;;;5058509;28;20052;-83
2021/12/05 14:35:10;;;;;;;21.23;11.32;;;4.40;99.90;;;;;;5075446;28;20048;-84
2021/12/05 14:37:38;;;;;;;25.17;12.65;;;4.40;99.90;;;;;;5058694;28;20040;-83
2021/12/05 14:40:10;;;;;;;22.13;10.77;;;4.40;99.90;;;;;;5075390;28;20557;-80
2021/12/05 14:42:39;;;;;;;21.10;12.32;;;4.50;99.90;;;;;;5058397;28;20080;-82
2021/12/05 14:45:24;;;;;;;25.83;13.00;;;4.40;99.90;;;;;;5075046;28;20044;-83
2021/12/05 14:47:53;;;;;;;24.30;12.15;;;4.40;99.90;;;;;;5074914;28;20045;-83
2021/12/05 14:50:30;;;;;;;24.85;13.13;;;4.30;99.90;;;;;;5075152;28;20479;-79
2021/12/05 14:52:57;;;;;;;23.90;13.40;;;4.40;99.90;;;;;;5058258;28;20040;-82
2021/12/05 14:55:25;;;;;;;23.90;12.55;;;4.40;99.90;;;;;;5058371;28;20060;-80
2021/12/05 14:57:55;;;;;;;25.80;12.80;;;4.30;99.90;;;;;;5074600;28;20053;-80
2021/12/05 15:00:31;;;;;;;25.33;13.20;;;4.30;99.90;;;;;;5058478;28;20066;-79
2021/12/05 15:03:06;;;;;;;24.80;13.55;;;4.40;99.90;;;;;;5074955;28;20084;-82
2021/12/05 15:05:35;;;;;;;29.90;13.40;;;4.40;99.90;;;;;;5058433;28;20321;-83
2021/12/05 15:08:04;;;;;;;27.88;13.30;;;4.30;99.90;;;;;;5074488;28;20053;-78
2021/12/05 15:10:31;;;;;;;28.10;14.77;;;4.20;99.90;;;;;;5074740;28;20106;-82
2021/12/05 15:12:56;;;;;;;24.63;12.85;;;4.20;99.90;;;;;;5074609;28;20044;-82
2021/12/05 15:15:25;;;;;;;20.95;13.32;;;4.20;99.90;;;;;;5074586;28;20043;-78
2021/12/05 15:17:51;;;;;;;25.40;14.25;;;4.40;99.90;;;;;;5057741;28;20044;-82
2021/12/05 15:20:20;;;;;;;21.60;13.38;;;4.20;99.90;;;;;;5058141;28;20372;-79
2021/12/05 15:22:49;;;;;;;35.80;16.17;;;4.20;99.90;;;;;;5074359;28;20037;-83
2021/12/05 15:25:18;;;;;;;28.92;14.98;;;4.20;99.90;;;;;;5074306;28;20044;-78
2021/12/05 15:27:45;;;;;;;24.98;14.82;;;4.10;99.90;;;;;;5057539;28;20094;-79
2021/12/05 15:30:19;;;;;;;31.17;15.88;;;4.20;99.90;;;;;;5057566;28;20053;-78
2021/12/05 15:32:49;;;;;;;29.40;14.60;;;4.10;99.90;;;;;;5074466;28;20406;-82
2021/12/05 15:35:17;;;;;;;31.55;17.77;;;4.10;99.90;;;;;;5056567;28;20037;-78
2021/12/05 15:37:56;;;;;;;27.77;16.05;;;4.10;99.90;;;;;;5057414;28;20052;-79
2021/12/05 15:40:24;;;;;;;27.90;16.00;;;4.10;99.90;;;;;;5057455;28;20056;-78
2021/12/05 15:42:51;;;;;;;33.08;17.73;;;4.20;99.90;;;;;;5057218;28;20045;-79
2021/12/05 15:45:19;;;;;;;31.85;17.92;;;4.10;99.90;;;;;;5073737;28;20071;-82
2021/12/05 15:47:46;;;;;;;30.92;16.63;;;4.00;99.90;;;;;;5057494;28;20510;-82
2021/12/05 15:50:18;;;;;;;34.60;17.13;;;4.10;99.90;;;;;;5073823;28;20051;-79
2021/12/05 15:52:51;;;;;;;25.92;15.90;;;4.00;99.90;;;;;;5057368;28;20053;-79
2021/12/05 15:55:39;;;;;;;35.17;18.23;;;4.00;99.90;;;;;;5057307;28;20499;-79
2021/12/05 15:58:23;;;;;;;33.17;16.55;;;3.90;99.90;;;;;;5073733;28;20048;-79
2021/12/05 16:01:07;;;;;;;31.73;17.23;;;3.80;99.90;;;;;;5057089;28;20047;-82
2021/12/05 16:03:45;;;;;;;39.78;18.38;;;3.90;99.90;;;;;;5073730;28;20052;-82
2021/12/05 16:06:15;;;;;;;38.53;19.80;;;3.90;99.90;;;;;;5056964;28;20044;-82
2021/12/05 16:08:43;;;;;;;32.50;19.10;;;3.70;99.90;;;;;;5073660;28;20052;-82
2021/12/05 16:11:18;;;;;;;37.83;19.33;;;3.70;99.90;;;;;;5073496;28;20048;-82
2021/12/05 16:13:46;;;;;;;38.13;18.73;;;3.60;99.90;;;;;;5073532;28;20074;-81
2021/12/05 16:16:14;;;;;;;35.58;18.65;;;3.70;99.90;;;;;;5073205;28;20044;-82
2021/12/05 16:18:43;;;;;;;37.85;19.40;;;3.70;99.90;;;;;;5056973;28;20372;-79
2021/12/05 16:21:22;;;;;;;40.00;19.37;;;3.80;99.90;;;;;;5056877;28;20512;-79
2021/12/05 16:23:49;;;;;;;38.67;20.00;;;3.70;99.90;;;;;;5056931;28;20092;-79
2021/12/05 16:26:20;;;;;;;38.57;19.77;;;3.70;99.90;;;;;;5056782;28;20441;-82
2021/12/05 16:28:49;;;;;;;34.42;19.80;;;3.70;99.90;;;;;;5073348;28;20052;-78
2021/12/05 16:31:29;;;;;;;42.65;22.30;;;3.70;99.90;;;;;;5073377;28;20046;-81
2021/12/05 16:34:07;;;;;;;39.88;19.75;;;3.50;99.90;;;;;;5073250;28;20050;-82
2021/12/05 16:36:34;;;;;;;34.97;20.27;;;3.60;99.90;;;;;;5072962;28;20072;-78
2021/12/05 16:39:11;;;;;;;42.92;21.38;;;3.50;99.90;;;;;;5056327;28;20044;-78
2021/12/05 16:41:37;;;;;;;43.15;22.27;;;3.50;99.90;;;;;;5073288;28;20438;-78
2021/12/05 16:44:14;;;;;;;37.85;21.83;;;3.50;99.90;;;;;;5056268;28;20055;-81
2021/12/05 16:46:44;;;;;;;42.40;21.73;;;3.50;99.90;;;;;;5072523;28;20060;-78
2021/12/05 16:49:19;;;;;;;41.72;20.45;;;3.40;99.90;;;;;;5073139;28;20044;-78
2021/12/05 16:52:05;;;;;;;39.15;20.83;;;3.50;99.90;;;;;;5056107;28;20048;-81
2021/12/05 16:54:35;;;;;;;41.40;22.43;;;3.50;99.90;;;;;;5073163;28;20390;-78
2021/12/05 16:57:18;;;;;;;36.30;21.90;;;3.40;99.90;;;;;;5055625;28;20056;-78
2021/12/05 16:59:49;;;;;;;47.75;23.02;;;3.50;99.90;;;;;;5072676;28;20048;-78
2021/12/05 17:02:22;;;;;;;44.37;22.40;;;3.60;99.90;;;;;;5072592;28;20472;-78
2021/12/05 17:05:04;;;;;;;38.80;22.20;;;3.50;99.90;;;;;;5072795;28;20429;-78
2021/12/05 17:08:16;;;;;;;40.50;22.57;;;3.50;99.90;;;;;;5055753;28;20044;-81
2021/12/05 17:10:50;;;;;;;35.87;20.80;;;3.40;99.90;;;;;;5071986;28;20363;-78
2021/12/05 17:13:19;;;;;;;50.00;25.55;;;3.50;99.90;;;;;;5055893;28;20529;-81
2021/12/05 17:15:48;;;;;;;41.95;22.55;;;3.50;99.90;;;;;;5055481;28;20048;-81
2021/12/05 17:18:25;;;;;;;39.78;22.33;;;3.40;99.90;;;;;;5072375;28;20486;-78
2021/12/05 17:20:54;;;;;;;35.83;19.73;;;3.50;99.90;;;;;;5072186;28;20044;-82
2021/12/05 17:23:36;;;;;;;35.63;20.97;;;3.40;99.90;;;;;;5055724;28;20451;-78
2021/12/05 17:26:10;;;;;;;51.80;24.90;;;3.40;99.90;;;;;;5055696;28;20483;-78
2021/12/05 17:28:44;;;;;;;;;;;3.30;99.90;;;;;;5055839;28;20036;-83
2021/12/05 17:31:14;;;;;;;40.83;22.50;;;3.30;99.90;;;;;;5055357;28;19924;-81
2021/12/05 17:33:45;;;;;;;36.43;21.47;;;3.30;99.90;;;;;;5072277;28;20483;-82
2021/12/05 17:36:16;;;;;;;33.43;21.20;;;3.20;99.90;;;;;;5071809;28;20070;-78
2021/12/05 17:38:42;;;;;;;41.67;23.00;;;3.20;99.90;;;;;;5072203;28;20049;-82
2021/12/05 17:41:08;;;;;;;45.23;23.83;;;3.20;99.90;;;;;;5038579;28;20097;-82
2021/12/05 17:43:34;;;;;;;39.97;22.77;;;3.10;99.90;;;;;;5055168;28;20403;-78
2021/12/05 17:46:00;;;;;;;42.47;23.13;;;3.10;99.90;;;;;;5055374;28;20509;-79
2021/12/05 17:48:25;;;;;;;44.17;24.97;;;3.10;99.90;;;;;;5055012;28;20118;-81
2021/12/05 17:50:53;;;;;;;47.57;25.67;;;3.10;99.90;;;;;;5055392;28;20094;-79
2021/12/05 17:53:28;;;;;;;43.83;23.13;;;3.10;99.90;;;;;;5038462;28;20044;-79
2021/12/05 17:56:01;;;;;;;46.57;25.60;;;3.10;99.90;;;;;;5055283;28;20037;-82
2021/12/05 17:58:50;;;;;;;41.63;22.38;;;3.10;99.90;;;;;;5071108;28;20131;-78
2021/12/05 18:04:01;;;;;;;42.00;23.30;;;3.10;99.90;;;;;;5057539;28;20126;-79
2021/12/05 18:06:27;;;;;;;47.13;23.63;;;2.90;99.90;;;;;;5054799;28;20036;-78
2021/12/05 18:08:53;;;;;;;37.33;20.87;;;2.90;99.90;;;;;;5054527;28;20051;-82
2021/12/05 18:11:24;;;;;;;46.90;24.47;;;3.00;99.90;;;;;;5054895;28;20049;-83
2021/12/05 18:13:54;;;;;;;39.87;21.60;;;2.80;99.90;;;;;;5071813;28;20386;-78
2021/12/05 18:16:23;;;;;;;44.33;23.93;;;2.70;99.90;;;;;;5054630;28;20043;-79
2021/12/05 18:18:52;;;;;;;37.17;20.37;;;2.70;99.90;;;;;;5054855;28;20044;-79
2021/12/05 18:21:19;;;;;;;45.87;22.97;;;2.80;99.90;;;;;;5038214;28;20052;-79
2021/12/05 18:23:44;;;;;;;43.73;23.93;;;2.80;99.90;;;;;;5054998;28;20055;-82
2021/12/05 18:26:11;;;;;;;38.40;20.43;;;2.90;99.90;;;;;;5071313;28;20037;-82
2021/12/05 18:28:38;;;;;;;42.00;21.30;;;2.80;99.90;;;;;;5071271;28;20072;-79
2021/12/05 18:31:06;;;;;;;42.03;23.07;;;2.70;99.90;;;;;;5071211;28;20120;-82
2021/12/05 18:33:33;;;;;;;41.90;22.40;;;2.70;99.90;;;;;;5071264;28;20454;-79
2021/12/05 18:35:59;;;;;;;45.20;25.10;;;2.70;99.90;;;;;;5054533;28;20076;-82
2021/12/05 18:38:26;;;;;;;42.57;22.30;;;2.70;99.90;;;;;;5054846;28;20415;-81